Time;durP1;ratioP1;P1;durP2;ratioP2;P2;SDS_P1;SDS_P2;PMS_P1;PMS_P2;Temp;Humidity;BMP_temperature;BMP_pressure;BME280_temperature;BME280_humidity;BME280_pressure;Samples;Min_cycle;Max_cycle;Signal;HPM_P1;HPM_P2
2022/01/27 00:00:29;;;;;;;37.78;15.63;;;5.20;99.90;;;;;;4955200;29;20050;-80
2022/01/27 00:05:17;;;;;;;34.35;13.88;;;5.20;99.90;;;;;;4955060;29;20086;-80
2022/01/27 00:07:45;;;;;;;38.03;15.40;;;5.20;99.90;;;;;;4954981;29;20035;-80
2022/01/27 00:12:37;;;;;;;37.03;15.25;;;5.20;99.90;;;;;;4954361;29;20047;-79
2022/01/27 00:15:14;;;;;;;34.85;14.70;;;5.20;99.90;;;;;;4937758;29;20038;-79
2022/01/27 00:17:47;;;;;;;34.42;12.57;;;5.20;99.90;;;;;;4938940;29;20043;-80
2022/01/27 00:20:15;;;;;;;37.60;15.05;;;5.30;99.90;;;;;;4954630;29;20491;-79
2022/01/27 00:22:42;;;;;;;31.80;13.85;;;5.20;99.90;;;;;;4954764;29;20074;-80
2022/01/27 00:25:08;;;;;;;42.90;15.02;;;5.20;99.90;;;;;;4955605;29;20039;-80
2022/01/27 00:27:34;;;;;;;32.30;14.05;;;5.20;99.90;;;;;;4938766;29;20108;-80
2022/01/27 00:30:03;;;;;;;27.92;12.98;;;5.30;99.90;;;;;;4954493;29;20070;-80
2022/01/27 00:32:30;;;;;;;30.17;14.90;;;5.30;99.90;;;;;;4955514;29;20117;-80
2022/01/27 00:34:55;;;;;;;29.48;12.70;;;5.30;99.90;;;;;;4938572;29;20483;-79
2022/01/27 00:37:21;;;;;;;29.65;13.90;;;5.30;99.90;;;;;;4938396;29;20150;-80
2022/01/27 00:39:46;;;;;;;32.90;14.00;;;5.30;99.90;;;;;;4938620;29;20098;-80
2022/01/27 00:42:12;;;;;;;34.25;13.43;;;5.30;99.90;;;;;;4954006;29;20078;-80
2022/01/27 00:44:37;;;;;;;34.22;14.95;;;5.30;99.90;;;;;;4955450;29;20054;-80
2022/01/27 00:47:03;;;;;;;38.58;16.38;;;5.30;99.90;;;;;;4953810;29;20561;-79
2022/01/27 00:49:29;;;;;;;27.15;10.60;;;5.40;99.90;;;;;;4938361;29;20403;-80
2022/01/27 00:51:56;;;;;;;30.92;13.02;;;5.40;99.90;;;;;;4938271;29;20031;-80
2022/01/27 00:54:26;;;;;;;32.20;14.50;;;5.40;99.90;;;;;;4955678;28;20047;-80
2022/01/27 01:02:36;;;;;;;34.80;13.88;;;5.40;99.90;;;;;;4935855;29;20078;-79
2022/01/27 01:07:43;;;;;;;33.35;14.38;;;5.40;99.90;;;;;;4956692;29;20055;-79
2022/01/27 01:14:00;;;;;;;33.60;12.68;;;5.40;99.90;;;;;;4956219;29;20051;-79
2022/01/27 01:15:32;;;;;;;31.25;13.48;;;5.40;99.90;;;;;;4955959;29;20487;-79
2022/01/27 01:18:08;;;;;;;30.17;11.77;;;5.50;99.90;;;;;;4940484;29;20589;-79
2022/01/27 01:31:32;;;;;;;34.45;13.60;;;5.50;99.90;;;;;;4957088;28;20058;-79
2022/01/27 01:36:37;;;;;;;32.25;13.40;;;5.50;99.90;;;;;;4957858;28;20047;-79
2022/01/27 01:39:06;;;;;;;24.58;11.43;;;5.50;99.90;;;;;;4958446;28;20035;-79
2022/01/27 01:41:32;;;;;;;29.60;13.63;;;5.50;99.90;;;;;;4958041;29;20043;-79
2022/01/27 01:43:59;;;;;;;30.58;13.05;;;5.60;99.90;;;;;;4955765;29;20042;-79
2022/01/27 01:46:25;;;;;;;29.45;12.48;;;5.60;99.90;;;;;;4955255;29;20049;-79
2022/01/27 01:48:51;;;;;;;25.27;12.23;;;5.60;99.90;;;;;;4956416;29;20386;-79
2022/01/27 01:51:26;;;;;;;32.08;13.00;;;5.70;99.90;;;;;;4940667;29;20050;-80
2022/01/27 01:53:53;;;;;;;28.25;12.52;;;5.60;99.90;;;;;;4957173;29;20048;-80
2022/01/27 01:56:19;;;;;;;36.35;13.98;;;5.60;99.90;;;;;;4957627;29;20044;-80
2022/01/27 01:58:44;;;;;;;29.90;12.70;;;5.60;99.90;;;;;;4939479;29;20045;-80
2022/01/27 02:01:10;;;;;;;32.10;12.70;;;5.60;99.90;;;;;;4955563;29;20490;-79
2022/01/27 02:03:36;;;;;;;31.65;12.88;;;5.60;99.90;;;;;;4939603;29;20106;-79
2022/01/27 02:06:02;;;;;;;38.40;13.27;;;5.50;99.90;;;;;;4939156;29;20043;-80
2022/01/27 02:08:42;;;;;;;28.63;12.10;;;5.50;99.90;;;;;;4939219;29;20034;-79
2022/01/27 02:19:28;;;;;;;28.85;12.20;;;5.50;99.90;;;;;;4954939;29;20084;-80
2022/01/27 02:21:57;;;;;;;30.85;13.45;;;5.50;99.90;;;;;;4954775;29;20415;-80
2022/01/27 02:24:25;;;;;;;35.58;14.35;;;5.50;99.90;;;;;;4955093;29;20098;-80
2022/01/27 02:26:51;;;;;;;32.67;12.63;;;5.50;99.90;;;;;;4955036;29;20047;-79
2022/01/27 02:29:19;;;;;;;31.15;13.23;;;5.50;99.90;;;;;;4956338;29;20114;-80
2022/01/27 02:31:46;;;;;;;32.42;12.77;;;5.50;99.90;;;;;;4955204;29;20384;-79
2022/01/27 02:34:11;;;;;;;25.92;12.88;;;5.40;99.90;;;;;;4939132;29;20079;-79
2022/01/27 02:36:37;;;;;;;33.33;14.75;;;5.40;99.90;;;;;;4954961;29;20082;-79
2022/01/27 02:39:04;;;;;;;32.38;13.63;;;5.30;99.90;;;;;;4955097;29;20533;-79
2022/01/27 02:41:37;;;;;;;32.17;13.70;;;5.30;99.90;;;;;;4954757;29;20131;-80
2022/01/27 02:44:03;;;;;;;30.33;12.48;;;5.30;99.90;;;;;;4954940;29;20510;-79
2022/01/27 02:46:41;;;;;;;37.85;14.98;;;5.30;99.90;;;;;;4938705;29;20054;-79
2022/01/27 02:49:07;;;;;;;31.85;12.75;;;5.30;99.90;;;;;;4955172;29;20048;-79
2022/01/27 02:51:35;;;;;;;36.10;13.70;;;5.40;99.90;;;;;;4939243;29;20050;-79
2022/01/27 02:54:01;;;;;;;27.58;12.18;;;5.40;99.90;;;;;;4954877;29;20039;-79
2022/01/27 02:56:27;;;;;;;31.85;13.43;;;5.50;99.90;;;;;;4938482;29;20545;-79
2022/01/27 02:58:52;;;;;;;38.17;14.52;;;5.50;99.90;;;;;;4938706;29;20043;-79
2022/01/27 03:01:20;;;;;;;32.22;13.73;;;5.50;99.90;;;;;;4954441;29;20043;-80
2022/01/27 03:03:45;;;;;;;33.60;12.48;;;5.50;99.90;;;;;;4955908;29;20043;-79
2022/01/27 03:06:11;;;;;;;39.22;14.95;;;5.50;99.90;;;;;;4954146;29;20106;-79
2022/01/27 03:08:37;;;;;;;28.65;11.88;;;5.50;99.90;;;;;;4938420;29;20420;-79
2022/01/27 03:11:06;;;;;;;36.67;13.70;;;5.50;99.90;;;;;;4938675;29;20043;-79
2022/01/27 03:13:32;;;;;;;35.13;13.43;;;5.50;99.90;;;;;;4954825;29;20047;-80
2022/01/27 03:15:58;;;;;;;36.33;14.15;;;5.50;99.90;;;;;;4953954;29;20046;-79
2022/01/27 03:18:23;;;;;;;31.42;12.85;;;5.50;99.90;;;;;;4938243;29;20039;-79
2022/01/27 03:20:49;;;;;;;30.42;13.32;;;5.60;99.90;;;;;;4954276;29;20051;-79
2022/01/27 03:23:14;;;;;;;40.45;14.52;;;5.50;99.90;;;;;;4938356;29;20050;-80
2022/01/27 03:25:40;;;;;;;31.83;13.02;;;5.50;99.90;;;;;;4955139;29;20038;-79
2022/01/27 03:28:09;;;;;;;34.67;14.18;;;5.50;99.90;;;;;;4954063;28;20051;-80
2022/01/27 03:30:34;;;;;;;34.20;15.13;;;5.50;99.90;;;;;;4954036;29;20047;-79
2022/01/27 03:33:00;;;;;;;38.60;14.68;;;5.50;99.90;;;;;;4938052;29;20390;-80
2022/01/27 03:35:25;;;;;;;32.22;13.30;;;5.50;99.90;;;;;;4953762;29;20039;-79
2022/01/27 03:37:51;;;;;;;35.05;14.57;;;5.50;99.90;;;;;;4938171;29;20403;-79
2022/01/27 03:40:16;;;;;;;37.67;14.43;;;5.50;99.90;;;;;;4937934;29;20043;-79
2022/01/27 03:42:49;;;;;;;26.45;12.20;;;5.50;99.90;;;;;;4938197;29;20450;-79
2022/01/27 03:45:15;;;;;;;36.88;14.60;;;5.50;99.90;;;;;;4954461;29;20105;-79
2022/01/27 03:47:41;;;;;;;33.05;14.23;;;5.50;99.90;;;;;;4954056;29;20051;-79
2022/01/27 03:50:07;;;;;;;33.95;14.38;;;5.50;99.90;;;;;;4955270;29;20106;-80
2022/01/27 03:52:32;;;;;;;28.27;12.77;;;5.50;99.90;;;;;;4953951;29;20502;-79
2022/01/27 03:54:58;;;;;;;24.48;11.02;;;5.40;99.90;;;;;;4954217;29;20035;-79
2022/01/27 03:57:23;;;;;;;34.45;14.25;;;5.40;99.90;;;;;;4937958;29;20043;-80
2022/01/27 03:59:49;;;;;;;35.50;13.40;;;5.40;99.90;;;;;;4953673;29;20047;-79
2022/01/27 04:02:16;;;;;;;36.65;15.43;;;5.40;99.90;;;;;;4954009;29;20047;-79
2022/01/27 04:04:41;;;;;;;34.25;14.80;;;5.30;99.90;;;;;;4938090;29;20122;-79
2022/01/27 04:07:09;;;;;;;38.42;14.77;;;5.30;99.90;;;;;;4953780;29;20135;-79
2022/01/27 04:09:35;;;;;;;33.67;14.68;;;5.30;99.90;;;;;;4954149;29;20039;-80
2022/01/27 04:12:00;;;;;;;36.38;14.45;;;5.30;99.90;;;;;;4953261;29;20558;-79
2022/01/27 04:14:26;;;;;;;37.17;15.50;;;5.30;99.90;;;;;;4937184;29;20102;-79
2022/01/27 04:16:51;;;;;;;35.58;14.35;;;5.30;99.90;;;;;;4952940;29;20039;-79
2022/01/27 04:19:17;;;;;;;39.35;15.48;;;5.30;99.90;;;;;;4937311;29;20071;-79
2022/01/27 04:21:42;;;;;;;32.53;12.52;;;5.40;99.90;;;;;;4954802;29;20036;-79
2022/01/27 04:24:10;;;;;;;33.65;13.30;;;5.40;99.90;;;;;;4953318;29;20043;-80
2022/01/27 04:26:44;;;;;;;31.33;12.88;;;5.40;99.90;;;;;;4953500;29;20422;-80
2022/01/27 04:29:10;;;;;;;37.55;15.13;;;5.40;99.90;;;;;;4937970;29;20051;-80
2022/01/27 04:31:38;;;;;;;32.88;14.52;;;5.40;99.90;;;;;;4953617;28;20082;-79
2022/01/27 04:34:04;;;;;;;34.08;13.60;;;5.40;99.90;;;;;;4953339;29;20589;-79
2022/01/27 04:36:32;;;;;;;34.22;14.32;;;5.40;99.90;;;;;;4937238;29;20134;-79
2022/01/27 04:39:15;;;;;;;37.10;14.73;;;5.40;99.90;;;;;;4939233;29;20047;-79
2022/01/27 04:42:06;;;;;;;37.35;15.10;;;5.50;99.90;;;;;;4959556;28;20098;-79
2022/01/27 04:44:39;;;;;;;32.17;12.80;;;5.50;99.90;;;;;;4959805;29;20039;-79
2022/01/27 04:47:14;;;;;;;29.98;13.27;;;5.50;99.90;;;;;;4960859;28;20039;-80
2022/01/27 04:49:39;;;;;;;34.88;14.18;;;5.50;99.90;;;;;;4959332;28;20130;-80
2022/01/27 04:52:06;;;;;;;26.50;11.18;;;5.50;99.90;;;;;;4959765;28;20126;-79
2022/01/27 04:54:39;;;;;;;29.48;11.13;;;5.50;99.90;;;;;;4960798;29;20094;-79
2022/01/27 04:57:06;;;;;;;37.83;14.50;;;5.50;99.90;;;;;;4960864;28;20066;-80
2022/01/27 04:59:37;;;;;;;26.55;11.70;;;5.50;99.90;;;;;;4959351;28;20554;-79
2022/01/27 05:02:08;;;;;;;29.02;12.38;;;5.50;99.90;;;;;;4943528;29;20494;-80
2022/01/27 05:04:40;;;;;;;34.65;13.32;;;5.50;99.90;;;;;;4943485;29;20051;-80
2022/01/27 05:07:05;;;;;;;34.25;13.13;;;5.50;99.90;;;;;;4943491;29;20486;-80
2022/01/27 05:09:31;;;;;;;36.53;13.25;;;5.50;99.90;;;;;;4959171;29;20043;-79
2022/01/27 05:12:10;;;;;;;31.35;14.77;;;5.60;99.90;;;;;;4960506;28;20051;-79
2022/01/27 05:14:35;;;;;;;27.13;11.65;;;5.50;99.90;;;;;;4960705;28;20106;-79
2022/01/27 05:17:01;;;;;;;41.65;14.63;;;5.50;99.90;;;;;;4958781;29;20054;-79
2022/01/27 05:19:26;;;;;;;32.10;13.60;;;5.50;99.90;;;;;;4942981;29;20403;-79
2022/01/27 05:21:52;;;;;;;29.55;11.95;;;5.50;99.90;;;;;;4960265;29;20046;-80
2022/01/27 05:24:19;;;;;;;35.05;14.02;;;5.50;99.90;;;;;;4943464;29;20074;-80
2022/01/27 05:26:45;;;;;;;37.75;14.00;;;5.40;99.90;;;;;;4959998;28;20106;-79
2022/01/27 05:29:11;;;;;;;35.53;12.90;;;5.50;99.90;;;;;;4943417;29;20043;-78
2022/01/27 05:31:37;;;;;;;34.38;13.15;;;5.50;99.90;;;;;;4943007;29;20483;-79
2022/01/27 05:34:04;;;;;;;31.67;12.10;;;5.50;99.90;;;;;;4959768;29;20557;-79
2022/01/27 05:36:30;;;;;;;38.47;14.25;;;5.50;99.90;;;;;;4958526;28;20078;-79
2022/01/27 05:38:56;;;;;;;34.05;12.40;;;5.50;99.90;;;;;;4942651;29;20035;-79
2022/01/27 05:41:21;;;;;;;28.80;12.95;;;5.50;99.90;;;;;;4942639;29;20078;-79
2022/01/27 05:43:47;;;;;;;35.72;13.20;;;5.50;99.90;;;;;;4942668;28;20050;-79
2022/01/27 05:46:12;;;;;;;31.40;13.10;;;5.60;99.90;;;;;;4942914;29;20043;-82
2022/01/27 05:48:38;;;;;;;35.33;12.98;;;5.60;99.90;;;;;;4946006;29;20101;-82
2022/01/27 05:51:05;;;;;;;36.13;14.15;;;5.60;99.90;;;;;;4943005;29;20070;-81
2022/01/27 05:53:32;;;;;;;35.90;14.07;;;5.60;99.90;;;;;;4944162;29;20050;-81
2022/01/27 05:55:58;;;;;;;37.80;13.15;;;5.60;99.90;;;;;;4943563;29;20043;-81
2022/01/27 05:58:25;;;;;;;33.25;11.23;;;5.60;99.90;;;;;;4960346;29;20403;-82
2022/01/27 06:00:53;;;;;;;34.42;11.48;;;5.60;99.90;;;;;;4944286;29;20050;-82
2022/01/27 06:03:19;;;;;;;26.27;12.27;;;5.60;99.90;;;;;;4943303;29;20130;-81
2022/01/27 06:05:45;;;;;;;32.53;13.25;;;5.60;99.90;;;;;;4959572;29;20091;-81
2022/01/27 06:08:10;;;;;;;31.17;12.38;;;5.60;99.90;;;;;;4959261;29;20126;-82
2022/01/27 06:10:36;;;;;;;30.70;12.05;;;5.60;99.90;;;;;;4959328;29;20121;-82
2022/01/27 06:13:03;;;;;;;34.22;13.68;;;5.50;99.90;;;;;;4959494;29;20035;-82
2022/01/27 06:15:29;;;;;;;30.80;13.27;;;5.60;99.90;;;;;;4959513;29;20046;-81
2022/01/27 06:17:57;;;;;;;31.88;11.32;;;5.50;99.90;;;;;;4957653;29;20428;-81
2022/01/27 06:20:23;;;;;;;28.55;13.43;;;5.50;99.90;;;;;;4958096;29;20043;-80
2022/01/27 06:22:52;;;;;;;32.67;13.10;;;5.40;99.90;;;;;;4959163;29;20130;-82
2022/01/27 06:25:18;;;;;;;37.45;13.45;;;5.40;99.90;;;;;;4957659;29;20083;-82
2022/01/27 06:27:43;;;;;;;41.47;14.70;;;5.40;99.90;;;;;;4941593;29;20051;-82
2022/01/27 06:30:12;;;;;;;34.72;13.85;;;5.40;99.90;;;;;;4958931;29;20122;-82
2022/01/27 06:32:38;;;;;;;34.38;12.32;;;5.40;99.90;;;;;;4958572;28;20081;-81
2022/01/27 06:35:03;;;;;;;38.78;16.17;;;5.40;99.90;;;;;;4957044;29;20043;-82
2022/01/27 06:37:31;;;;;;;37.50;13.85;;;5.40;99.90;;;;;;4958096;29;20418;-80
2022/01/27 06:39:56;;;;;;;38.00;15.27;;;5.40;99.90;;;;;;4957711;28;20043;-80
2022/01/27 06:42:22;;;;;;;33.03;13.65;;;5.40;99.90;;;;;;4940404;29;20093;-80
2022/01/27 06:44:47;;;;;;;37.55;11.75;;;5.40;99.90;;;;;;4957741;29;20495;-81
2022/01/27 06:47:13;;;;;;;33.15;12.63;;;5.40;99.90;;;;;;4957521;29;20047;-81
2022/01/27 06:49:38;;;;;;;29.58;12.77;;;5.40;99.90;;;;;;4955834;29;20122;-82
2022/01/27 06:52:05;;;;;;;31.58;13.60;;;5.40;99.90;;;;;;4956936;29;20566;-82
2022/01/27 06:54:31;;;;;;;28.35;10.32;;;5.40;99.90;;;;;;4939780;29;20062;-81
2022/01/27 06:56:56;;;;;;;32.17;12.95;;;5.40;99.90;;;;;;4939551;29;20035;-82
2022/01/27 06:59:22;;;;;;;33.80;11.85;;;5.40;99.90;;;;;;4956422;29;20043;-82
2022/01/27 07:01:48;;;;;;;28.42;12.35;;;5.40;99.90;;;;;;4939153;29;20126;-82
2022/01/27 07:04:13;;;;;;;29.45;12.88;;;5.40;99.90;;;;;;4957343;29;20049;-82
2022/01/27 07:06:39;;;;;;;34.42;12.65;;;5.50;99.90;;;;;;4955815;29;20133;-82
2022/01/27 07:09:05;;;;;;;32.72;14.13;;;5.50;99.90;;;;;;4956353;29;20043;-81
2022/01/27 07:11:31;;;;;;;25.02;11.05;;;5.50;99.90;;;;;;4940066;29;20491;-81
2022/01/27 07:13:57;;;;;;;26.88;11.90;;;5.50;99.90;;;;;;4958108;28;20416;-81
2022/01/27 07:16:22;;;;;;;34.33;12.10;;;5.60;99.90;;;;;;4956588;29;20047;-81
2022/01/27 07:18:48;;;;;;;31.58;11.50;;;5.50;99.90;;;;;;4940851;29;20138;-81
2022/01/27 07:21:13;;;;;;;24.58;11.40;;;5.60;99.90;;;;;;4956885;29;20040;-81
2022/01/27 07:23:39;;;;;;;34.15;12.77;;;5.50;99.90;;;;;;4955804;29;20054;-82
2022/01/27 07:26:05;;;;;;;29.35;11.82;;;5.60;99.90;;;;;;4939370;29;20047;-81
2022/01/27 07:28:30;;;;;;;22.25;11.13;;;5.60;99.90;;;;;;4955931;29;20039;-81
2022/01/27 07:30:56;;;;;;;28.60;11.55;;;5.60;99.90;;;;;;4955366;29;20050;-81
2022/01/27 07:33:21;;;;;;;24.85;10.40;;;5.60;99.90;;;;;;4956700;29;20479;-82
2022/01/27 07:35:47;;;;;;;21.33;10.15;;;5.70;99.90;;;;;;4938807;29;20410;-81
2022/01/27 07:38:12;;;;;;;28.73;9.93;;;5.70;99.90;;;;;;4955736;29;20406;-81
2022/01/27 07:40:38;;;;;;;20.48;9.70;;;5.60;99.90;;;;;;4957091;29;20164;-81
2022/01/27 07:43:03;;;;;;;22.67;9.82;;;5.70;99.90;;;;;;4958280;28;20039;-81
2022/01/27 07:45:29;;;;;;;19.30;8.70;;;5.70;99.90;;;;;;4956135;29;20062;-81
2022/01/27 07:47:55;;;;;;;23.05;9.52;;;5.70;99.90;;;;;;4956779;29;20051;-81
2022/01/27 07:50:21;;;;;;;23.33;9.73;;;5.70;99.90;;;;;;4956639;29;20051;-82
2022/01/27 07:52:47;;;;;;;19.33;8.20;;;5.80;99.90;;;;;;4956851;29;20039;-81
2022/01/27 07:55:13;;;;;;;24.48;9.45;;;5.70;99.90;;;;;;4939977;29;20046;-81
2022/01/27 07:57:39;;;;;;;23.67;9.80;;;5.80;99.90;;;;;;4941104;29;20043;-81
2022/01/27 08:00:06;;;;;;;22.48;9.05;;;5.90;99.90;;;;;;4956282;29;20035;-82
2022/01/27 08:02:31;;;;;;;20.90;9.48;;;5.90;99.90;;;;;;4956642;29;20039;-81
2022/01/27 08:04:57;;;;;;;25.58;10.07;;;5.90;99.90;;;;;;4956086;29;20126;-81
2022/01/27 08:07:22;;;;;;;20.67;9.15;;;5.90;99.90;;;;;;4956619;29;20098;-81
2022/01/27 08:09:48;;;;;;;24.98;9.32;;;6.00;99.90;;;;;;4957207;29;20050;-80
2022/01/27 08:12:14;;;;;;;22.33;9.95;;;6.10;99.90;;;;;;4941378;29;20039;-81
2022/01/27 08:14:41;;;;;;;27.20;10.77;;;6.10;99.90;;;;;;4956639;28;20039;-81
2022/01/27 08:17:06;;;;;;;28.48;10.73;;;6.10;99.90;;;;;;4940530;29;20035;-81
2022/01/27 08:19:32;;;;;;;25.98;8.98;;;6.20;99.90;;;;;;4941125;29;20035;-80
2022/01/27 08:21:58;;;;;;;25.95;9.77;;;6.20;99.90;;;;;;4941655;29;20125;-80
2022/01/27 08:24:23;;;;;;;26.83;8.85;;;6.30;99.90;;;;;;4957338;29;20118;-80
2022/01/27 08:26:51;;;;;;;26.48;10.02;;;6.20;99.90;;;;;;4941230;29;20047;-80
2022/01/27 08:29:24;;;;;;;23.95;8.93;;;6.40;99.90;;;;;;4941641;29;20070;-81
2022/01/27 08:34:35;;;;;;;24.58;9.85;;;6.50;99.90;;;;;;4953831;29;20047;-80
2022/01/27 08:37:21;;;;;;;21.75;8.35;;;6.60;99.90;;;;;;4953262;29;20055;-79
2022/01/27 08:39:47;;;;;;;22.15;7.88;;;6.70;99.90;;;;;;4937766;29;20097;-81
2022/01/27 08:42:14;;;;;;;26.60;9.38;;;6.60;99.90;;;;;;4957673;29;20438;-81
2022/01/27 08:44:40;;;;;;;24.35;7.80;;;6.70;99.90;;;;;;4956790;29;20050;-81
2022/01/27 08:47:06;;;;;;;29.23;9.07;;;6.70;99.90;;;;;;4940855;29;20043;-81
2022/01/27 08:49:32;;;;;;;25.33;7.78;;;6.70;99.90;;;;;;4956882;29;20040;-81
2022/01/27 08:51:58;;;;;;;25.45;8.77;;;6.80;99.90;;;;;;4958158;28;20566;-81
2022/01/27 08:54:25;;;;;;;26.67;7.93;;;6.80;99.90;;;;;;4956878;29;20078;-81
2022/01/27 08:56:50;;;;;;;23.85;7.85;;;6.80;99.90;;;;;;4958446;28;20047;-81
2022/01/27 08:59:16;;;;;;;24.52;7.70;;;6.80;99.90;;;;;;4940819;29;20371;-81
2022/01/27 09:01:42;;;;;;;25.85;8.35;;;6.90;99.90;;;;;;4953770;29;20039;-79
2022/01/27 09:04:08;;;;;;;18.17;7.32;;;6.90;99.90;;;;;;4957650;28;20043;-80
2022/01/27 09:06:35;;;;;;;24.65;9.57;;;6.90;99.90;;;;;;4955357;28;20054;-81
2022/01/27 09:09:00;;;;;;;18.95;7.65;;;7.00;99.90;;;;;;4954409;29;20050;-81
2022/01/27 09:11:29;;;;;;;31.52;7.43;;;7.00;99.90;;;;;;4954967;29;20047;-81
2022/01/27 09:13:55;;;;;;;28.23;8.82;;;7.10;99.90;;;;;;4937966;29;20405;-81
2022/01/27 09:16:23;;;;;;;28.15;7.90;;;7.10;99.90;;;;;;4938335;29;20051;-81
2022/01/27 09:18:49;;;;;;;20.60;6.38;;;7.10;99.90;;;;;;4956377;28;20047;-81
2022/01/27 09:21:21;;;;;;;16.15;6.93;;;7.20;99.90;;;;;;4955794;29;20039;-82
2022/01/27 09:23:48;;;;;;;21.75;6.50;;;7.30;99.90;;;;;;4955392;29;20401;-81
2022/01/27 09:26:38;;;;;;;25.50;7.25;;;7.30;99.90;;;;;;4941983;29;20126;-80
2022/01/27 09:28:59;;;;;;;19.38;7.45;;;7.40;99.90;;;;;;4958541;29;20086;-81
2022/01/27 09:31:24;;;;;;;28.05;6.43;;;7.40;99.90;;;;;;4958821;29;20039;-82
2022/01/27 09:33:50;;;;;;;24.05;6.68;;;7.50;99.90;;;;;;4957081;29;20048;-81
2022/01/27 09:36:16;;;;;;;17.55;6.63;;;7.50;99.90;;;;;;4957310;29;20070;-81
2022/01/27 09:38:41;;;;;;;22.08;6.57;;;7.50;99.90;;;;;;4957612;29;20082;-82
2022/01/27 09:41:08;;;;;;;19.25;5.47;;;7.50;99.90;;;;;;4940999;29;20510;-81
2022/01/27 09:43:35;;;;;;;17.17;5.90;;;7.50;99.90;;;;;;4956650;29;20191;-79
2022/01/27 09:46:08;;;;;;;21.83;6.30;;;7.60;99.90;;;;;;4939638;29;20047;-79
2022/01/27 09:48:40;;;;;;;26.90;6.53;;;7.60;99.90;;;;;;4939581;29;20054;-79
2022/01/27 09:51:25;;;;;;;18.67;5.90;;;7.70;99.90;;;;;;4957049;28;20054;-79
2022/01/27 09:53:54;;;;;;;17.08;4.63;;;7.70;99.90;;;;;;4955287;29;20039;-78
2022/01/27 09:56:20;;;;;;;18.60;5.30;;;7.80;99.90;;;;;;4957337;29;20055;-81
2022/01/27 09:58:46;;;;;;;17.45;4.90;;;7.90;99.90;;;;;;4960599;28;20043;-81
2022/01/27 10:01:11;;;;;;;20.08;7.43;;;7.90;99.90;;;;;;4960777;29;20050;-80
2022/01/27 10:04:03;;;;;;;14.57;4.93;;;7.90;99.90;;;;;;4959192;29;20051;-79
2022/01/27 10:06:31;;;;;;;11.18;4.25;;;7.90;99.90;;;;;;4957692;28;20036;-80
2022/01/27 10:09:18;;;;;;;14.65;5.05;;;7.90;99.90;;;;;;4960396;28;20094;-81
2022/01/27 10:11:47;;;;;;;20.70;5.65;;;7.90;99.90;;;;;;4962211;28;20045;-80
2022/01/27 10:14:22;;;;;;;23.35;6.13;;;7.80;99.90;;;;;;4956372;29;20043;-79
2022/01/27 10:16:53;;;;;;;21.63;5.97;;;7.90;99.90;;;;;;4945853;29;20050;-80
2022/01/27 10:19:19;;;;;;;20.42;5.93;;;7.90;99.90;;;;;;4961940;29;20403;-81
2022/01/27 10:21:48;;;;;;;10.00;5.15;;;7.90;99.90;;;;;;4963388;28;20118;-81
2022/01/27 10:24:26;;;;;;;18.05;5.63;;;7.90;99.90;;;;;;4963604;28;20057;-81
2022/01/27 10:27:45;;;;;;;20.95;5.60;;;7.90;99.90;;;;;;4943731;29;20170;-81
2022/01/27 10:32:55;;;;;;;17.95;4.57;;;7.80;99.90;;;;;;4956226;29;20055;-80
2022/01/27 10:35:25;;;;;;;14.15;4.70;;;7.80;99.90;;;;;;4955833;29;20051;-79
2022/01/27 10:38:01;;;;;;;11.75;4.32;;;7.80;99.90;;;;;;4956049;28;20047;-79
2022/01/27 10:40:34;;;;;;;12.93;4.50;;;7.80;99.90;;;;;;4956499;28;20057;-80
2022/01/27 10:43:08;;;;;;;18.77;5.05;;;7.80;99.90;;;;;;4956447;28;20054;-80
2022/01/27 10:45:35;;;;;;;20.73;5.07;;;7.80;99.90;;;;;;4956637;29;20043;-80
2022/01/27 10:48:22;;;;;;;21.55;7.22;;;7.80;99.90;;;;;;4939647;29;20050;-79
2022/01/27 10:50:56;;;;;;;16.95;5.10;;;7.80;99.90;;;;;;4957263;28;20227;-79
2022/01/27 10:53:22;;;;;;;21.33;5.40;;;7.80;99.90;;;;;;4956464;29;20089;-81
2022/01/27 10:56:06;;;;;;;13.30;5.35;;;7.90;99.90;;;;;;4940297;29;20039;-80
2022/01/27 10:58:34;;;;;;;14.35;4.97;;;7.90;99.90;;;;;;4956485;29;20090;-80
2022/01/27 11:01:00;;;;;;;13.88;4.95;;;7.90;99.90;;;;;;4959294;29;20138;-81
2022/01/27 11:03:27;;;;;;;12.23;4.35;;;8.00;99.90;;;;;;4962318;28;20054;-81
2022/01/27 11:05:54;;;;;;;14.88;4.97;;;8.00;99.90;;;;;;4957732;28;20049;-78
2022/01/27 11:08:21;;;;;;;14.85;4.72;;;8.10;99.90;;;;;;4937978;29;20047;-80
2022/01/27 11:10:49;;;;;;;21.63;5.47;;;8.10;99.90;;;;;;4954502;29;20050;-81
2022/01/27 11:13:17;;;;;;;18.33;4.75;;;8.20;99.90;;;;;;4943851;29;20426;-81
2022/01/27 11:15:44;;;;;;;18.00;4.30;;;8.20;99.90;;;;;;4943540;29;20546;-82
2022/01/27 11:18:10;;;;;;;13.00;4.93;;;8.20;99.90;;;;;;4960688;29;20043;-81
2022/01/27 11:26:12;;;;;;;9.73;3.63;;;8.30;99.90;;;;;;4954318;29;20450;-80
2022/01/27 11:28:43;;;;;;;20.95;4.88;;;8.30;99.90;;;;;;4957118;28;20053;-80
2022/01/27 11:31:35;;;;;;;19.50;4.40;;;8.30;99.90;;;;;;4955729;29;20098;-80
2022/01/27 11:34:04;;;;;;;17.38;4.47;;;8.40;99.90;;;;;;4970701;28;20134;-81
2022/01/27 11:36:30;;;;;;;11.80;4.38;;;8.40;99.90;;;;;;4955100;28;20053;-80
2022/01/27 11:38:58;;;;;;;15.27;4.13;;;8.50;99.90;;;;;;4954324;29;20122;-81
2022/01/27 11:41:44;;;;;;;23.90;5.53;;;8.50;99.90;;;;;;4938000;29;20125;-81
2022/01/27 11:44:37;;;;;;;13.38;3.55;;;8.60;99.90;;;;;;4955400;29;20130;-80
2022/01/27 11:47:13;;;;;;;;;;;8.60;99.90;;;;;;4952616;29;20520;-80
2022/01/27 11:50:27;;;;;;;21.85;3.28;;;8.60;99.90;;;;;;4953368;28;20125;-80
2022/01/27 11:52:53;;;;;;;12.70;2.78;;;8.60;99.90;;;;;;4955294;28;20044;-81
2022/01/27 11:55:25;;;;;;;11.13;2.42;;;8.70;99.90;;;;;;4953758;29;20098;-78
2022/01/27 11:57:58;;;;;;;4.32;2.45;;;8.70;99.90;;;;;;4956705;29;20442;-78
2022/01/27 12:00:26;;;;;;;13.07;2.55;;;8.80;99.90;;;;;;4938674;29;20094;-79
2022/01/27 12:03:00;;;;;;;12.80;2.60;;;8.80;99.90;;;;;;4955986;28;20043;-78
2022/01/27 12:05:28;;;;;;;14.73;2.67;;;8.90;99.90;;;;;;4954529;29;20043;-78
2022/01/27 12:08:09;;;;;;;9.57;2.45;;;9.00;99.90;;;;;;4954963;29;20059;-78
2022/01/27 12:10:44;;;;;;;9.02;1.92;;;9.10;99.90;;;;;;4938926;29;20077;-78
2022/01/27 12:13:29;;;;;;;7.97;1.70;;;9.10;99.90;;;;;;4956239;28;20118;-78
2022/01/27 12:19:11;;;;;;;10.27;2.40;;;9.20;99.90;;;;;;4956738;28;20043;-78
2022/01/27 12:21:51;;;;;;;10.82;2.85;;;9.20;99.90;;;;;;4955228;29;20043;-78
2022/01/27 12:24:24;;;;;;;12.25;2.50;;;9.20;99.90;;;;;;4940278;29;20454;-78
2022/01/27 12:27:16;;;;;;;8.82;2.20;;;9.20;99.90;;;;;;4955035;29;20058;-80
2022/01/27 12:29:46;;;;;;;11.07;1.80;;;9.30;99.90;;;;;;4939356;29;20089;-81
2022/01/27 12:32:22;;;;;;;12.95;2.17;;;9.30;99.90;;;;;;4955957;29;20046;-80
2022/01/27 12:34:54;;;;;;;12.27;2.40;;;9.30;99.90;;;;;;4955158;29;20039;-81
2022/01/27 12:37:23;;;;;;;12.95;2.42;;;9.30;99.90;;;;;;4938683;29;20126;-81
2022/01/27 12:39:54;;;;;;;12.05;2.88;;;9.30;99.90;;;;;;4954990;29;20248;-80
2022/01/27 12:42:21;;;;;;;9.13;2.40;;;9.30;99.90;;;;;;4954913;29;20418;-81
2022/01/27 12:45:12;;;;;;;10.73;2.15;;;9.40;99.90;;;;;;4954868;29;20058;-80
2022/01/27 12:47:43;;;;;;;10.10;2.08;;;9.40;99.90;;;;;;4939131;29;20467;-80
2022/01/27 12:50:12;;;;;;;8.60;2.00;;;9.30;99.90;;;;;;4939225;29;20039;-78
2022/01/27 12:52:43;;;;;;;10.82;2.63;;;9.30;99.90;;;;;;4956430;28;20105;-78
2022/01/27 12:55:14;;;;;;;11.20;2.53;;;9.40;99.90;;;;;;4956015;28;20070;-79
2022/01/27 12:57:40;;;;;;;10.23;2.10;;;9.40;99.90;;;;;;4956177;29;20050;-79
2022/01/27 13:00:11;;;;;;;8.48;2.03;;;9.40;99.90;;;;;;4958129;28;20329;-79
2022/01/27 13:02:38;;;;;;;8.73;1.95;;;9.40;99.90;;;;;;4961592;28;20051;-78
2022/01/27 13:05:05;;;;;;;6.88;2.13;;;9.40;99.90;;;;;;4960235;28;20371;-79
2022/01/27 13:07:38;;;;;;;16.80;3.90;;;9.40;99.90;;;;;;4960965;29;20039;-81
2022/01/27 13:10:09;;;;;;;16.35;3.53;;;9.30;99.90;;;;;;4959207;29;20572;-81
2022/01/27 13:12:51;;;;;;;9.77;2.00;;;9.30;99.90;;;;;;4958139;29;20102;-81
2022/01/27 13:15:20;;;;;;;14.80;2.78;;;9.30;99.90;;;;;;4942853;29;20040;-81
2022/01/27 13:17:50;;;;;;;11.30;1.80;;;9.30;99.90;;;;;;4959926;28;20043;-81
2022/01/27 13:20:32;;;;;;;14.35;2.38;;;9.20;99.90;;;;;;4942541;29;20046;-81
2022/01/27 13:23:10;;;;;;;14.82;3.00;;;9.30;99.90;;;;;;4958452;29;20096;-81
2022/01/27 13:25:37;;;;;;;9.70;2.85;;;9.30;99.90;;;;;;4942604;29;20043;-81
2022/01/27 13:28:25;;;;;;;11.25;2.65;;;9.30;99.90;;;;;;4958702;29;20054;-81
2022/01/27 13:30:58;;;;;;;13.65;2.55;;;9.30;99.90;;;;;;4941715;29;20043;-81
2022/01/27 13:33:25;;;;;;;14.30;2.22;;;9.30;99.90;;;;;;4957834;29;20043;-74
2022/01/27 13:35:53;;;;;;;9.20;2.05;;;9.20;99.90;;;;;;4958814;28;20126;-82
2022/01/27 13:38:27;;;;;;;12.43;2.22;;;9.20;99.90;;;;;;4958429;29;20047;-82
2022/01/27 13:41:24;;;;;;;9.85;2.63;;;9.10;99.90;;;;;;4941360;29;20130;-82
2022/01/27 13:44:07;;;;;;;14.70;3.15;;;9.10;99.90;;;;;;4958318;29;20114;-82